sensor_id;sensor_type;location;lat;lon;timestamp;pressure;altitude;pressure_sealevel;temperature;humidity
12868;BME280;33517;49.866;8.320;2023-02-20T00:01:51;101609.09;;;7.85;86.54
12868;BME280;33517;49.866;8.320;2023-02-20T00:04:46;101605.50;;;7.75;86.05
12868;BME280;33517;49.866;8.320;2023-02-20T00:07:41;101606.94;;;7.68;86.81
12868;BME280;33517;49.866;8.320;2023-02-20T00:10:35;101609.91;;;7.64;87.32
12868;BME280;33517;49.866;8.320;2023-02-20T00:13:31;101606.66;;;7.49;87.13
12868;BME280;33517;49.866;8.320;2023-02-20T00:16:23;101608.53;;;7.36;87.41
12868;BME280;33517;49.866;8.320;2023-02-20T00:19:15;101614.22;;;7.19;88.56
12868;BME280;33517;49.866;8.320;2023-02-20T00:22:09;101609.81;;;7.19;88.14
12868;BME280;33517;49.866;8.320;2023-02-20T00:25:02;101594.19;;;7.18;87.68
12868;BME280;33517;49.866;8.320;2023-02-20T00:27:56;101585.25;;;7.09;85.99
12868;BME280;33517;49.866;8.320;2023-02-20T00:30:48;101592.50;;;7.06;86.42
12868;BME280;33517;49.866;8.320;2023-02-20T00:33:41;101588.09;;;7.06;85.48
12868;BME280;33517;49.866;8.320;2023-02-20T00:36:35;101580.25;;;7.06;86.44
12868;BME280;33517;49.866;8.320;2023-02-20T00:39:27;101584.31;;;7.10;85.14
12868;BME280;33517;49.866;8.320;2023-02-20T00:42:21;101583.38;;;7.11;85.58
12868;BME280;33517;49.866;8.320;2023-02-20T00:45:16;101585.25;;;7.09;86.22
12868;BME280;33517;49.866;8.320;2023-02-20T00:48:08;101572.50;;;7.05;86.33
12868;BME280;33517;49.866;8.320;2023-02-20T00:51:00;101579.88;;;7.00;85.33
12868;BME280;33517;49.866;8.320;2023-02-20T00:53:52;101584.00;;;6.91;86.31
12868;BME280;33517;49.866;8.320;2023-02-20T00:56:44;101581.09;;;6.83;86.71
12868;BME280;33517;49.866;8.320;2023-02-20T00:59:36;101582.50;;;6.76;85.97
12868;BME280;33517;49.866;8.320;2023-02-20T01:02:29;101580.34;;;6.70;86.01
12868;BME280;33517;49.866;8.320;2023-02-20T01:05:22;101587.38;;;6.70;86.57
12868;BME280;33517;49.866;8.320;2023-02-20T01:08:13;101590.19;;;6.67;86.49
12868;BME280;33517;49.866;8.320;2023-02-20T01:11:05;101583.38;;;6.64;86.58
12868;BME280;33517;49.866;8.320;2023-02-20T01:13:57;101577.47;;;6.62;86.67
12868;BME280;33517;49.866;8.320;2023-02-20T01:16:51;101587.94;;;6.62;85.99
12868;BME280;33517;49.866;8.320;2023-02-20T01:19:45;101582.91;;;6.59;85.77
12868;BME280;33517;49.866;8.320;2023-02-20T01:22:37;101582.06;;;6.59;86.36
12868;BME280;33517;49.866;8.320;2023-02-20T01:25:28;101573.59;;;6.55;86.45
12868;BME280;33517;49.866;8.320;2023-02-20T01:28:20;101576.66;;;6.49;86.20
12868;BME280;33517;49.866;8.320;2023-02-20T01:31:15;101578.28;;;6.39;87.20
12868;BME280;33517;49.866;8.320;2023-02-20T01:34:06;101572.16;;;6.27;88.10
12868;BME280;33517;49.866;8.320;2023-02-20T01:37:00;101574.59;;;6.18;87.99
12868;BME280;33517;49.866;8.320;2023-02-20T01:39:52;101575.22;;;6.09;87.50
12868;BME280;33517;49.866;8.320;2023-02-20T01:42:44;101568.88;;;6.00;87.04
12868;BME280;33517;49.866;8.320;2023-02-20T01:45:38;101563.44;;;5.91;86.97
12868;BME280;33517;49.866;8.320;2023-02-20T01:48:31;101570.06;;;5.84;87.03
12868;BME280;33517;49.866;8.320;2023-02-20T01:51:23;101560.31;;;5.86;86.96
12868;BME280;33517;49.866;8.320;2023-02-20T01:54:21;101558.41;;;5.88;87.25
12868;BME280;33517;49.866;8.320;2023-02-20T01:57:17;101559.88;;;5.92;87.32
12868;BME280;33517;49.866;8.320;2023-02-20T02:00:14;101551.13;;;5.93;87.56
12868;BME280;33517;49.866;8.320;2023-02-20T02:03:08;101545.66;;;5.96;87.41
12868;BME280;33517;49.866;8.320;2023-02-20T02:06:11;101545.91;;;5.93;86.73
12868;BME280;33517;49.866;8.320;2023-02-20T02:09:08;101546.09;;;5.90;86.99
12868;BME280;33517;49.866;8.320;2023-02-20T02:12:04;101541.81;;;5.89;86.64
12868;BME280;33517;49.866;8.320;2023-02-20T02:14:56;101525.66;;;5.84;86.24
12868;BME280;33517;49.866;8.320;2023-02-20T02:18:05;101532.19;;;5.77;86.61
12868;BME280;33517;49.866;8.320;2023-02-20T02:21:35;101525.75;;;5.70;86.18
12868;BME280;33517;49.866;8.320;2023-02-20T02:25:09;101514.13;;;5.61;86.22
12868;BME280;33517;49.866;8.320;2023-02-20T02:31:55;101525.44;;;5.49;86.62
12868;BME280;33517;49.866;8.320;2023-02-20T02:35:14;101517.81;;;5.46;86.84
12868;BME280;33517;49.866;8.320;2023-02-20T02:38:17;101529.41;;;5.42;86.24
12868;BME280;33517;49.866;8.320;2023-02-20T02:41:19;101521.50;;;5.43;86.77
12868;BME280;33517;49.866;8.320;2023-02-20T02:44:16;101521.28;;;5.46;87.37
12868;BME280;33517;49.866;8.320;2023-02-20T02:47:12;101521.47;;;5.56;87.72
12868;BME280;33517;49.866;8.320;2023-02-20T02:50:09;101518.31;;;5.63;87.62
12868;BME280;33517;49.866;8.320;2023-02-20T02:53:05;101500.47;;;5.70;87.50
12868;BME280;33517;49.866;8.320;2023-02-20T02:55:59;101508.69;;;5.77;87.64
12868;BME280;33517;49.866;8.320;2023-02-20T02:59:14;101513.41;;;5.84;87.19
12868;BME280;33517;49.866;8.320;2023-02-20T03:02:11;101515.47;;;5.92;88.36
12868;BME280;33517;49.866;8.320;2023-02-20T03:05:07;101514.94;;;5.99;87.99
12868;BME280;33517;49.866;8.320;2023-02-20T03:08:01;101517.22;;;6.04;87.82
12868;BME280;33517;49.866;8.320;2023-02-20T03:10:53;101517.72;;;6.09;87.13
12868;BME280;33517;49.866;8.320;2023-02-20T03:13:49;101508.97;;;6.10;87.74
12868;BME280;33517;49.866;8.320;2023-02-20T03:17:06;101505.38;;;6.11;87.38
12868;BME280;33517;49.866;8.320;2023-02-20T03:20:01;101497.34;;;6.14;87.45
12868;BME280;33517;49.866;8.320;2023-02-20T03:22:57;101501.41;;;6.18;87.48
12868;BME280;33517;49.866;8.320;2023-02-20T03:25:53;101503.91;;;6.19;87.21
12868;BME280;33517;49.866;8.320;2023-02-20T03:28:50;101514.38;;;6.19;87.40
12868;BME280;33517;49.866;8.320;2023-02-20T03:31:47;101517.81;;;6.20;88.09
12868;BME280;33517;49.866;8.320;2023-02-20T03:34:56;101515.22;;;6.20;87.07
12868;BME280;33517;49.866;8.320;2023-02-20T03:38:07;101510.78;;;6.20;87.07
12868;BME280;33517;49.866;8.320;2023-02-20T03:41:19;101516.84;;;6.21;87.79
12868;BME280;33517;49.866;8.320;2023-02-20T03:44:33;101513.31;;;6.22;87.14
12868;BME280;33517;49.866;8.320;2023-02-20T03:47:27;101522.81;;;6.23;86.92
12868;BME280;33517;49.866;8.320;2023-02-20T03:50:20;101514.38;;;6.19;87.61
12868;BME280;33517;49.866;8.320;2023-02-20T03:53:29;101514.56;;;6.16;87.30
12868;BME280;33517;49.866;8.320;2023-02-20T03:56:24;101522.63;;;6.13;87.64
12868;BME280;33517;49.866;8.320;2023-02-20T03:59:19;101506.34;;;6.10;87.13
12868;BME280;33517;49.866;8.320;2023-02-20T04:02:19;101510.97;;;6.06;87.52
12868;BME280;33517;49.866;8.320;2023-02-20T04:05:15;101511.16;;;6.03;87.05
12868;BME280;33517;49.866;8.320;2023-02-20T04:08:10;101512.88;;;5.92;87.85
12868;BME280;33517;49.866;8.320;2023-02-20T04:11:07;101514.03;;;5.75;87.71
12868;BME280;33517;49.866;8.320;2023-02-20T04:14:01;101513.34;;;5.60;87.33
12868;BME280;33517;49.866;8.320;2023-02-20T04:16:57;101517.50;;;5.50;87.25
12868;BME280;33517;49.866;8.320;2023-02-20T04:19:51;101520.09;;;5.38;88.11
12868;BME280;33517;49.866;8.320;2023-02-20T04:22:47;101508.84;;;5.25;87.50
12868;BME280;33517;49.866;8.320;2023-02-20T04:25:44;101510.44;;;5.15;87.76
12868;BME280;33517;49.866;8.320;2023-02-20T04:28:38;101501.13;;;5.11;88.23
12868;BME280;33517;49.866;8.320;2023-02-20T04:31:30;101503.75;;;5.11;87.84
12868;BME280;33517;49.866;8.320;2023-02-20T04:34:22;101503.09;;;5.07;87.90
12868;BME280;33517;49.866;8.320;2023-02-20T04:37:18;101508.63;;;5.03;87.75
12868;BME280;33517;49.866;8.320;2023-02-20T04:40:11;101512.56;;;4.96;87.38
12868;BME280;33517;49.866;8.320;2023-02-20T04:43:03;101514.75;;;4.89;87.30
12868;BME280;33517;49.866;8.320;2023-02-20T04:45:55;101513.41;;;4.84;87.86
12868;BME280;33517;49.866;8.320;2023-02-20T04:48:47;101507.63;;;4.79;87.69
12868;BME280;33517;49.866;8.320;2023-02-20T04:51:39;101520.03;;;4.75;87.88
12868;BME280;33517;49.866;8.320;2023-02-20T04:54:32;101516.53;;;4.76;88.16
12868;BME280;33517;49.866;8.320;2023-02-20T04:57:24;101516.00;;;4.84;88.33
12868;BME280;33517;49.866;8.320;2023-02-20T05:00:17;101516.75;;;4.86;88.57
12868;BME280;33517;49.866;8.320;2023-02-20T05:03:10;101509.56;;;4.89;89.22
12868;BME280;33517;49.866;8.320;2023-02-20T05:06:02;101507.47;;;4.94;89.72
12868;BME280;33517;49.866;8.320;2023-02-20T05:08:54;101511.03;;;4.93;90.22
12868;BME280;33517;49.866;8.320;2023-02-20T05:11:47;101502.56;;;4.90;90.56
12868;BME280;33517;49.866;8.320;2023-02-20T05:14:39;101499.31;;;4.86;91.14
12868;BME280;33517;49.866;8.320;2023-02-20T05:17:31;101505.38;;;4.87;90.81
12868;BME280;33517;49.866;8.320;2023-02-20T05:20:23;101504.44;;;4.88;91.27
12868;BME280;33517;49.866;8.320;2023-02-20T05:23:35;101506.00;;;4.90;91.54
12868;BME280;33517;49.866;8.320;2023-02-20T05:26:26;101506.72;;;4.92;91.98
12868;BME280;33517;49.866;8.320;2023-02-20T05:29:20;101505.81;;;4.93;91.60
12868;BME280;33517;49.866;8.320;2023-02-20T05:32:12;101512.66;;;4.94;92.21
12868;BME280;33517;49.866;8.320;2023-02-20T05:35:05;101493.50;;;4.95;91.90
12868;BME280;33517;49.866;8.320;2023-02-20T05:37:57;101488.47;;;4.92;92.34
12868;BME280;33517;49.866;8.320;2023-02-20T05:40:49;101494.31;;;4.96;92.65
12868;BME280;33517;49.866;8.320;2023-02-20T05:43:41;101487.84;;;4.89;92.44
12868;BME280;33517;49.866;8.320;2023-02-20T05:46:38;101491.81;;;4.82;91.76
12868;BME280;33517;49.866;8.320;2023-02-20T05:49:30;101510.91;;;4.82;92.20
12868;BME280;33517;49.866;8.320;2023-02-20T05:52:24;101502.63;;;4.76;92.03
12868;BME280;33517;49.866;8.320;2023-02-20T05:55:16;101513.34;;;4.71;91.93
12868;BME280;33517;49.866;8.320;2023-02-20T05:58:08;101501.47;;;4.67;91.67
12868;BME280;33517;49.866;8.320;2023-02-20T06:01:00;101505.13;;;4.64;91.72
12868;BME280;33517;49.866;8.320;2023-02-20T06:03:53;101513.34;;;4.58;91.80
12868;BME280;33517;49.866;8.320;2023-02-20T06:06:45;101506.13;;;4.49;91.66
12868;BME280;33517;49.866;8.320;2023-02-20T06:09:40;101491.38;;;4.36;91.13
12868;BME280;33517;49.866;8.320;2023-02-20T06:12:32;101495.13;;;4.32;91.72
12868;BME280;33517;49.866;8.320;2023-02-20T06:15:24;101492.91;;;4.26;92.24
12868;BME280;33517;49.866;8.320;2023-02-20T06:18:16;101489.56;;;4.24;91.70
12868;BME280;33517;49.866;8.320;2023-02-20T06:21:10;101481.25;;;4.31;93.21
12868;BME280;33517;49.866;8.320;2023-02-20T06:24:02;101476.88;;;4.32;92.91
12868;BME280;33517;49.866;8.320;2023-02-20T06:26:55;101471.06;;;4.41;92.87
12868;BME280;33517;49.866;8.320;2023-02-20T06:30:03;101473.91;;;4.50;92.99
12868;BME280;33517;49.866;8.320;2023-02-20T06:32:55;101474.03;;;4.61;93.60
12868;BME280;33517;49.866;8.320;2023-02-20T06:35:47;101478.44;;;4.74;93.63
12868;BME280;33517;49.866;8.320;2023-02-20T06:38:42;101467.81;;;5.02;94.25
12868;BME280;33517;49.866;8.320;2023-02-20T06:41:34;101464.16;;;5.17;93.43
12868;BME280;33517;49.866;8.320;2023-02-20T06:44:26;101469.72;;;5.37;93.51
12868;BME280;33517;49.866;8.320;2023-02-20T06:47:32;101474.38;;;5.57;94.47
12868;BME280;33517;49.866;8.320;2023-02-20T06:50:24;101472.47;;;5.72;94.57
12868;BME280;33517;49.866;8.320;2023-02-20T06:53:16;101483.75;;;5.85;94.32
12868;BME280;33517;49.866;8.320;2023-02-20T06:56:13;101478.81;;;5.93;93.80
12868;BME280;33517;49.866;8.320;2023-02-20T06:59:08;101487.75;;;6.02;94.19
12868;BME280;33517;49.866;8.320;2023-02-20T07:02:00;101488.06;;;6.10;94.09
12868;BME280;33517;49.866;8.320;2023-02-20T07:04:51;101487.50;;;6.17;94.05
12868;BME280;33517;49.866;8.320;2023-02-20T07:07:44;101492.56;;;6.31;92.58
12868;BME280;33517;49.866;8.320;2023-02-20T07:10:46;101488.00;;;6.46;93.27
12868;BME280;33517;49.866;8.320;2023-02-20T07:13:39;101491.03;;;6.64;92.52
12868;BME280;33517;49.866;8.320;2023-02-20T07:16:31;101502.59;;;6.72;92.13
12868;BME280;33517;49.866;8.320;2023-02-20T07:19:23;101489.41;;;6.74;91.77
12868;BME280;33517;49.866;8.320;2023-02-20T07:22:15;101490.91;;;6.89;92.19
12868;BME280;33517;49.866;8.320;2023-02-20T07:25:07;101480.09;;;8.47;90.11
12868;BME280;33517;49.866;8.320;2023-02-20T07:27:59;101479.47;;;10.64;83.18
12868;BME280;33517;49.866;8.320;2023-02-20T07:30:52;101481.34;;;11.65;76.90
12868;BME280;33517;49.866;8.320;2023-02-20T07:33:44;101482.56;;;12.16;73.92
12868;BME280;33517;49.866;8.320;2023-02-20T07:36:36;101489.84;;;12.92;72.00
12868;BME280;33517;49.866;8.320;2023-02-20T07:39:28;101487.94;;;13.79;69.20
12868;BME280;33517;49.866;8.320;2023-02-20T07:42:21;101485.31;;;14.29;67.54
12868;BME280;33517;49.866;8.320;2023-02-20T07:45:13;101485.78;;;14.32;67.34
12868;BME280;33517;49.866;8.320;2023-02-20T07:48:06;101487.78;;;12.78;68.55
12868;BME280;33517;49.866;8.320;2023-02-20T07:50:58;101486.72;;;11.64;71.96
12868;BME280;33517;49.866;8.320;2023-02-20T07:53:51;101476.00;;;10.82;75.37
12868;BME280;33517;49.866;8.320;2023-02-20T07:56:44;101487.38;;;10.64;76.50
12868;BME280;33517;49.866;8.320;2023-02-20T07:59:36;101466.81;;;11.79;74.16
12868;BME280;33517;49.866;8.320;2023-02-20T08:02:28;101463.41;;;12.84;71.59
12868;BME280;33517;49.866;8.320;2023-02-20T08:05:22;101458.25;;;15.30;64.21
12868;BME280;33517;49.866;8.320;2023-02-20T08:08:14;101462.34;;;13.96;63.62
12868;BME280;33517;49.866;8.320;2023-02-20T08:11:06;101466.25;;;12.90;67.91
12868;BME280;33517;49.866;8.320;2023-02-20T08:13:58;101459.34;;;12.54;68.11
12868;BME280;33517;49.866;8.320;2023-02-20T08:16:50;101461.13;;;12.46;70.01
12868;BME280;33517;49.866;8.320;2023-02-20T08:19:42;101449.84;;;12.09;70.51
12868;BME280;33517;49.866;8.320;2023-02-20T08:22:35;101448.84;;;11.92;71.19
12868;BME280;33517;49.866;8.320;2023-02-20T08:25:27;101436.09;;;11.87;71.73
12868;BME280;33517;49.866;8.320;2023-02-20T08:28:19;101450.25;;;11.69;72.94
12868;BME280;33517;49.866;8.320;2023-02-20T08:31:11;101440.06;;;12.19;72.12
12868;BME280;33517;49.866;8.320;2023-02-20T08:34:03;101426.81;;;11.83;71.47
12868;BME280;33517;49.866;8.320;2023-02-20T08:36:55;101418.31;;;11.89;72.56
12868;BME280;33517;49.866;8.320;2023-02-20T08:39:48;101411.50;;;13.26;69.89
12868;BME280;33517;49.866;8.320;2023-02-20T08:42:40;101409.09;;;15.03;63.83
12868;BME280;33517;49.866;8.320;2023-02-20T08:45:32;101408.50;;;16.54;57.18
12868;BME280;33517;49.866;8.320;2023-02-20T08:48:24;101404.53;;;16.88;55.46
12868;BME280;33517;49.866;8.320;2023-02-20T08:51:18;101407.94;;;15.60;57.43
12868;BME280;33517;49.866;8.320;2023-02-20T08:54:10;101411.66;;;14.64;60.26
12868;BME280;33517;49.866;8.320;2023-02-20T08:57:03;101414.59;;;14.13;61.72
12868;BME280;33517;49.866;8.320;2023-02-20T08:59:56;101405.22;;;14.43;62.38
12868;BME280;33517;49.866;8.320;2023-02-20T09:02:48;101419.88;;;14.13;61.46
12868;BME280;33517;49.866;8.320;2023-02-20T09:05:40;101418.72;;;14.16;62.44
12868;BME280;33517;49.866;8.320;2023-02-20T09:08:33;101424.00;;;14.08;62.41
12868;BME280;33517;49.866;8.320;2023-02-20T09:11:25;101423.84;;;14.09;62.07
12868;BME280;33517;49.866;8.320;2023-02-20T09:14:18;101414.94;;;16.15;59.98
12868;BME280;33517;49.866;8.320;2023-02-20T09:17:10;101414.91;;;16.97;54.94
12868;BME280;33517;49.866;8.320;2023-02-20T09:20:02;101412.28;;;18.55;50.22
12868;BME280;33517;49.866;8.320;2023-02-20T09:22:56;101408.91;;;20.24;47.74
12868;BME280;33517;49.866;8.320;2023-02-20T09:25:49;101402.81;;;19.35;46.68
12868;BME280;33517;49.866;8.320;2023-02-20T09:28:41;101411.63;;;18.74;48.90
12868;BME280;33517;49.866;8.320;2023-02-20T09:31:34;101407.28;;;18.24;48.70
12868;BME280;33517;49.866;8.320;2023-02-20T09:34:28;101406.47;;;17.52;49.84
12868;BME280;33517;49.866;8.320;2023-02-20T09:37:20;101406.50;;;18.72;49.76
12868;BME280;33517;49.866;8.320;2023-02-20T09:40:20;101402.75;;;20.56;45.44
12868;BME280;33517;49.866;8.320;2023-02-20T09:43:18;101404.88;;;21.44;42.64
12868;BME280;33517;49.866;8.320;2023-02-20T09:46:15;101409.94;;;21.71;42.28
12868;BME280;33517;49.866;8.320;2023-02-20T09:49:12;101402.22;;;22.50;41.63
12868;BME280;33517;49.866;8.320;2023-02-20T09:52:10;101390.59;;;23.24;39.60
12868;BME280;33517;49.866;8.320;2023-02-20T09:55:05;101389.13;;;23.75;39.47
12868;BME280;33517;49.866;8.320;2023-02-20T09:57:58;101406.91;;;24.36;39.14
12868;BME280;33517;49.866;8.320;2023-02-20T10:00:52;101406.50;;;24.09;38.28
12868;BME280;33517;49.866;8.320;2023-02-20T10:03:53;101410.34;;;24.02;36.33
12868;BME280;33517;49.866;8.320;2023-02-20T10:06:49;101409.88;;;24.05;36.98
12868;BME280;33517;49.866;8.320;2023-02-20T10:09:42;101410.56;;;24.12;37.28
12868;BME280;33517;49.866;8.320;2023-02-20T10:12:37;101408.41;;;24.32;35.89
12868;BME280;33517;49.866;8.320;2023-02-20T10:15:37;101401.19;;;23.37;38.31
12868;BME280;33517;49.866;8.320;2023-02-20T10:18:38;101388.16;;;25.85;34.93
12868;BME280;33517;49.866;8.320;2023-02-20T10:21:43;101383.53;;;25.06;35.45
12868;BME280;33517;49.866;8.320;2023-02-20T10:24:47;101383.09;;;25.88;33.67
12868;BME280;33517;49.866;8.320;2023-02-20T10:27:53;101374.09;;;25.03;32.79
12868;BME280;33517;49.866;8.320;2023-02-20T10:30:49;101382.63;;;24.77;34.71
12868;BME280;33517;49.866;8.320;2023-02-20T10:33:50;101368.75;;;25.43;34.59
12868;BME280;33517;49.866;8.320;2023-02-20T10:36:45;101377.47;;;25.10;35.23
12868;BME280;33517;49.866;8.320;2023-02-20T10:39:44;101377.28;;;25.28;35.24
12868;BME280;33517;49.866;8.320;2023-02-20T10:42:44;101382.72;;;25.68;34.51
12868;BME280;33517;49.866;8.320;2023-02-20T10:45:43;101359.28;;;25.06;32.58
12868;BME280;33517;49.866;8.320;2023-02-20T10:48:37;101366.22;;;24.90;33.80
12868;BME280;33517;49.866;8.320;2023-02-20T10:51:34;101368.09;;;24.66;33.06
12868;BME280;33517;49.866;8.320;2023-02-20T10:54:34;101368.22;;;25.06;32.60
12868;BME280;33517;49.866;8.320;2023-02-20T10:57:35;101361.88;;;24.66;33.35
12868;BME280;33517;49.866;8.320;2023-02-20T11:00:31;101365.16;;;24.68;33.21
12868;BME280;33517;49.866;8.320;2023-02-20T11:03:29;101358.81;;;24.28;33.10
12868;BME280;33517;49.866;8.320;2023-02-20T11:06:30;101353.47;;;24.97;32.95
12868;BME280;33517;49.866;8.320;2023-02-20T11:09:23;101357.34;;;25.01;32.54
12868;BME280;33517;49.866;8.320;2023-02-20T11:12:23;101344.06;;;24.19;32.94
12868;BME280;33517;49.866;8.320;2023-02-20T11:15:20;101334.56;;;23.45;34.25
12868;BME280;33517;49.866;8.320;2023-02-20T11:18:19;101333.06;;;23.49;33.82
12868;BME280;33517;49.866;8.320;2023-02-20T11:21:33;101336.41;;;24.04;34.28
12868;BME280;33517;49.866;8.320;2023-02-20T11:24:28;101343.13;;;24.13;33.61
12868;BME280;33517;49.866;8.320;2023-02-20T11:27:22;101341.25;;;24.25;33.51
12868;BME280;33517;49.866;8.320;2023-02-20T11:30:27;101310.75;;;23.78;33.56
12868;BME280;33517;49.866;8.320;2023-02-20T11:33:21;101316.09;;;23.67;33.99
12868;BME280;33517;49.866;8.320;2023-02-20T11:36:16;101306.56;;;23.53;34.36
12868;BME280;33517;49.866;8.320;2023-02-20T11:39:21;101307.91;;;23.73;34.17
12868;BME280;33517;49.866;8.320;2023-02-20T11:42:16;101312.47;;;24.14;33.38
12868;BME280;33517;49.866;8.320;2023-02-20T11:45:14;101299.50;;;24.23;33.18
12868;BME280;33517;49.866;8.320;2023-02-20T11:48:11;101305.91;;;24.10;33.40
12868;BME280;33517;49.866;8.320;2023-02-20T11:51:29;101292.72;;;24.20;32.75
12868;BME280;33517;49.866;8.320;2023-02-20T11:54:23;101293.53;;;23.38;33.55
12868;BME280;33517;49.866;8.320;2023-02-20T11:57:20;101294.94;;;23.70;33.55
12868;BME280;33517;49.866;8.320;2023-02-20T12:00:17;101287.13;;;23.81;33.48
12868;BME280;33517;49.866;8.320;2023-02-20T12:03:16;101281.81;;;24.27;33.12
12868;BME280;33517;49.866;8.320;2023-02-20T12:06:36;101280.28;;;23.55;33.57
12868;BME280;33517;49.866;8.320;2023-02-20T12:09:29;101274.03;;;23.43;33.93
12868;BME280;33517;49.866;8.320;2023-02-20T12:12:22;101264.69;;;23.45;33.61
12868;BME280;33517;49.866;8.320;2023-02-20T12:15:18;101256.44;;;23.29;33.45
12868;BME280;33517;49.866;8.320;2023-02-20T12:18:30;101252.97;;;23.69;34.52
12868;BME280;33517;49.866;8.320;2023-02-20T12:21:34;101253.38;;;24.65;33.25
12868;BME280;33517;49.866;8.320;2023-02-20T12:24:42;101254.47;;;24.07;32.53
12868;BME280;33517;49.866;8.320;2023-02-20T12:27:49;101246.28;;;22.83;33.66
12868;BME280;33517;49.866;8.320;2023-02-20T12:30:55;101247.41;;;23.83;33.91
12868;BME280;33517;49.866;8.320;2023-02-20T12:34:07;101242.94;;;23.35;33.10
12868;BME280;33517;49.866;8.320;2023-02-20T12:37:09;101243.59;;;22.65;34.10
12868;BME280;33517;49.866;8.320;2023-02-20T12:40:24;101233.38;;;22.37;35.19
12868;BME280;33517;49.866;8.320;2023-02-20T12:43:27;101225.50;;;23.08;34.42
12868;BME280;33517;49.866;8.320;2023-02-20T12:46:23;101215.44;;;23.63;33.43
12868;BME280;33517;49.866;8.320;2023-02-20T12:52:53;101216.31;;;22.86;33.81
12868;BME280;33517;49.866;8.320;2023-02-20T12:55:53;101219.22;;;22.84;34.02
12868;BME280;33517;49.866;8.320;2023-02-20T12:58:55;101210.03;;;23.40;33.44
12868;BME280;33517;49.866;8.320;2023-02-20T13:01:51;101211.34;;;23.60;33.72
12868;BME280;33517;49.866;8.320;2023-02-20T13:04:49;101202.34;;;23.55;33.08
12868;BME280;33517;49.866;8.320;2023-02-20T13:07:46;101209.97;;;22.80;33.95
12868;BME280;33517;49.866;8.320;2023-02-20T13:10:49;101196.63;;;22.92;34.39
12868;BME280;33517;49.866;8.320;2023-02-20T13:13:50;101190.53;;;22.67;34.74
12868;BME280;33517;49.866;8.320;2023-02-20T13:16:51;101177.09;;;22.49;34.38
12868;BME280;33517;49.866;8.320;2023-02-20T13:19:54;101180.66;;;22.07;35.09
12868;BME280;33517;49.866;8.320;2023-02-20T13:22:58;101168.44;;;22.11;35.63
12868;BME280;33517;49.866;8.320;2023-02-20T13:25:51;101168.50;;;22.04;35.67
12868;BME280;33517;49.866;8.320;2023-02-20T13:31:44;101157.47;;;21.69;36.27
12868;BME280;33517;49.866;8.320;2023-02-20T13:34:38;101149.88;;;21.91;35.49
12868;BME280;33517;49.866;8.320;2023-02-20T13:37:50;101148.00;;;21.42;36.69
12868;BME280;33517;49.866;8.320;2023-02-20T13:40:44;101133.97;;;21.47;37.39
12868;BME280;33517;49.866;8.320;2023-02-20T13:43:36;101124.50;;;21.13;37.57
12868;BME280;33517;49.866;8.320;2023-02-20T13:46:28;101124.13;;;21.09;37.24
12868;BME280;33517;49.866;8.320;2023-02-20T13:49:53;101121.28;;;20.98;37.51
12868;BME280;33517;49.866;8.320;2023-02-20T13:52:47;101114.03;;;21.36;37.33
12868;BME280;33517;49.866;8.320;2023-02-20T13:55:47;101110.84;;;21.28;36.65
12868;BME280;33517;49.866;8.320;2023-02-20T13:58:38;101111.09;;;21.44;37.29
12868;BME280;33517;49.866;8.320;2023-02-20T14:01:54;101096.56;;;21.58;36.92
12868;BME280;33517;49.866;8.320;2023-02-20T14:04:55;101106.81;;;21.12;37.27
12868;BME280;33517;49.866;8.320;2023-02-20T14:07:47;101096.00;;;21.00;37.08
12868;BME280;33517;49.866;8.320;2023-02-20T14:10:39;101080.69;;;21.07;36.70
12868;BME280;33517;49.866;8.320;2023-02-20T14:13:38;101081.28;;;20.41;37.37
12868;BME280;33517;49.866;8.320;2023-02-20T14:16:32;101077.19;;;19.42;38.46
12868;BME280;33517;49.866;8.320;2023-02-20T14:19:26;101066.88;;;17.85;40.90
12868;BME280;33517;49.866;8.320;2023-02-20T14:22:26;101079.53;;;17.28;42.97
12868;BME280;33517;49.866;8.320;2023-02-20T14:25:23;101072.63;;;16.70;43.90
12868;BME280;33517;49.866;8.320;2023-02-20T14:28:16;101058.44;;;15.98;45.13
12868;BME280;33517;49.866;8.320;2023-02-20T14:31:21;101047.09;;;15.75;46.11
12868;BME280;33517;49.866;8.320;2023-02-20T14:34:20;101042.44;;;15.62;46.94
12868;BME280;33517;49.866;8.320;2023-02-20T14:37:18;101029.00;;;15.49;46.72
12868;BME280;33517;49.866;8.320;2023-02-20T14:40:16;101036.13;;;15.49;47.02
12868;BME280;33517;49.866;8.320;2023-02-20T14:43:14;101035.44;;;15.32;47.80
12868;BME280;33517;49.866;8.320;2023-02-20T14:46:17;101016.91;;;15.10;47.77
12868;BME280;33517;49.866;8.320;2023-02-20T14:49:21;101020.09;;;15.05;48.19
12868;BME280;33517;49.866;8.320;2023-02-20T14:52:18;101019.91;;;15.07;48.65
12868;BME280;33517;49.866;8.320;2023-02-20T14:55:14;101019.91;;;15.07;48.62
12868;BME280;33517;49.866;8.320;2023-02-20T14:58:12;101015.69;;;14.98;48.10
12868;BME280;33517;49.866;8.320;2023-02-20T15:01:13;101009.81;;;14.88;48.01
12868;BME280;33517;49.866;8.320;2023-02-20T15:04:11;101001.75;;;14.81;48.66
12868;BME280;33517;49.866;8.320;2023-02-20T15:07:06;101022.00;;;14.74;48.65
12868;BME280;33517;49.866;8.320;2023-02-20T15:09:59;101011.06;;;14.77;48.82
12868;BME280;33517;49.866;8.320;2023-02-20T15:12:55;101007.94;;;14.73;48.43
12868;BME280;33517;49.866;8.320;2023-02-20T15:15:50;101004.47;;;14.73;48.68
12868;BME280;33517;49.866;8.320;2023-02-20T15:18:44;101006.34;;;14.64;49.24
12868;BME280;33517;49.866;8.320;2023-02-20T15:21:39;101003.75;;;14.56;49.64
12868;BME280;33517;49.866;8.320;2023-02-20T15:24:36;100997.81;;;14.54;49.86
12868;BME280;33517;49.866;8.320;2023-02-20T15:27:28;100991.50;;;14.55;49.47
12868;BME280;33517;49.866;8.320;2023-02-20T15:30:23;100995.69;;;14.50;49.25
12868;BME280;33517;49.866;8.320;2023-02-20T15:33:15;100995.03;;;14.48;49.77
12868;BME280;33517;49.866;8.320;2023-02-20T15:36:10;100994.75;;;14.43;49.77
12868;BME280;33517;49.866;8.320;2023-02-20T15:39:03;100988.31;;;14.37;49.60